createdAt,value
2019-03-06T00:02:12.064Z,99086.72
2019-03-06T00:04:41.664Z,99096.67
2019-03-06T00:07:11.398Z,99105.92
2019-03-06T00:09:41.478Z,99106.64
2019-03-06T00:12:11.313Z,99105.52
2019-03-06T00:14:41.343Z,99104.03
2019-03-06T00:17:11.312Z,99103.81
2019-03-06T00:19:41.044Z,99091.84
2019-03-06T00:22:10.966Z,99086.84
2019-03-06T00:24:40.662Z,99090.90
2019-03-06T00:27:10.362Z,99088.01
2019-03-06T00:29:40.005Z,99080.24
2019-03-06T00:32:09.748Z,99070.94
2019-03-06T00:34:39.390Z,99057.24
2019-03-06T00:37:09.113Z,99040.70
2019-03-06T00:39:45.535Z,99015.89
2019-03-06T00:42:15.219Z,99008.40
2019-03-06T00:44:44.865Z,98999.32
2019-03-06T00:47:14.475Z,98994.02
2019-03-06T00:49:44.065Z,98991.30
2019-03-06T00:52:13.788Z,98996.52
2019-03-06T00:54:43.445Z,98986.41
2019-03-06T00:57:13.051Z,98981.54
2019-03-06T00:59:42.763Z,98975.51
2019-03-06T01:02:12.411Z,98974.63
2019-03-06T01:04:42.075Z,98982.97
2019-03-06T01:07:11.888Z,98967.02
2019-03-06T01:09:41.501Z,98957.59
2019-03-06T01:12:11.377Z,98955.03
2019-03-06T01:14:41.019Z,98949.86
2019-03-06T01:17:10.627Z,98939.37
2019-03-06T01:19:40.288Z,98937.12
2019-03-06T01:22:09.907Z,98945.92
2019-03-06T01:24:39.633Z,98947.27
2019-03-06T01:27:09.247Z,98950.17
2019-03-06T01:29:38.970Z,98957.15
2019-03-06T01:32:08.766Z,98959.91
2019-03-06T01:35:04.556Z,98963.51
2019-03-06T01:37:59.458Z,98975.48
2019-03-06T01:40:50.787Z,98971.47
2019-03-06T01:43:26.068Z,98966.70
2019-03-06T01:45:56.144Z,98961.82
2019-03-06T01:48:25.973Z,98965.34
2019-03-06T01:50:55.638Z,98962.17
2019-03-06T01:53:25.266Z,98962.19
2019-03-06T01:55:55.027Z,98968.42
2019-03-06T01:58:24.898Z,98979.70
2019-03-06T02:00:55.222Z,98987.87
2019-03-06T02:03:25.015Z,98994.56
2019-03-06T02:05:54.909Z,98992.88
2019-03-06T02:08:24.634Z,98991.22
2019-03-06T02:10:54.370Z,98983.94
2019-03-06T02:13:24.729Z,98989.41
2019-03-06T02:15:54.368Z,98985.80
2019-03-06T02:18:23.985Z,98988.63
2019-03-06T02:20:53.609Z,98989.27
2019-03-06T02:23:23.208Z,98988.55
2019-03-06T02:25:52.960Z,98982.70
2019-03-06T02:28:22.551Z,98989.08
2019-03-06T02:30:52.270Z,98991.83
2019-03-06T02:33:22.184Z,98988.83
2019-03-06T02:35:51.885Z,98986.75
2019-03-06T02:38:21.548Z,98989.06
2019-03-06T02:40:51.180Z,98985.02
2019-03-06T02:43:20.844Z,98986.97
2019-03-06T02:45:50.694Z,98982.32
2019-03-06T02:48:20.370Z,98973.73
2019-03-06T02:50:50.117Z,98977.03
2019-03-06T02:53:19.754Z,98977.72
2019-03-06T02:55:49.387Z,98970.69
2019-03-06T02:58:29.188Z,98967.48
2019-03-06T03:01:29.737Z,98965.09
2019-03-06T03:04:13.781Z,98983.70
2019-03-06T03:06:46.745Z,98983.76
2019-03-06T03:09:20.538Z,98990.09
2019-03-06T03:11:50.188Z,98992.95
2019-03-06T03:14:19.793Z,98988.87
2019-03-06T03:16:49.389Z,99001.79
2019-03-06T03:19:19.092Z,98991.52
2019-03-06T03:21:48.753Z,98997.43
2019-03-06T03:24:18.428Z,98997.32
2019-03-06T03:26:48.134Z,99001.11
2019-03-06T03:29:17.733Z,99000.97
2019-03-06T03:31:47.504Z,99000.14
2019-03-06T03:34:17.139Z,99007.90
2019-03-06T03:36:46.874Z,98998.70
2019-03-06T03:39:16.495Z,98998.02
2019-03-06T03:41:46.152Z,99005.52
2019-03-06T03:44:15.766Z,99005.28
2019-03-06T03:46:45.363Z,99014.76
2019-03-06T03:49:14.982Z,99017.36
2019-03-06T03:51:44.599Z,99014.95
2019-03-06T03:54:14.342Z,99014.81
2019-03-06T03:56:43.950Z,99016.30
2019-03-06T03:59:13.644Z,99012.09
2019-03-06T04:01:43.668Z,99019.94
2019-03-06T04:04:13.445Z,99019.81
2019-03-06T04:09:11.410Z,99028.03
2019-03-06T04:11:41.021Z,99039.67
2019-03-06T04:14:10.643Z,99044.39
2019-03-06T04:16:40.330Z,99041.88
2019-03-06T04:19:09.924Z,99048.17
2019-03-06T04:21:39.540Z,99046.83
2019-03-06T04:24:09.479Z,99040.23
2019-03-06T04:26:39.127Z,99046.31
2019-03-06T04:29:08.734Z,99042.32
2019-03-06T04:31:38.427Z,99046.62
2019-03-06T04:34:08.055Z,99037.89
2019-03-06T04:36:37.763Z,99045.09
2019-03-06T04:39:07.811Z,99050.06
2019-03-06T04:41:37.418Z,99049.84
2019-03-06T04:44:06.980Z,99049.97
2019-03-06T04:46:36.632Z,99052.48
2019-03-06T04:49:06.237Z,99055.77
2019-03-06T04:51:36.194Z,99055.41
2019-03-06T04:54:05.824Z,99060.27
2019-03-06T04:56:35.464Z,99060.96
2019-03-06T04:59:05.191Z,99061.48
2019-03-06T05:01:34.881Z,99058.31
2019-03-06T05:04:04.774Z,99066.67
2019-03-06T05:06:34.534Z,99068.98
2019-03-06T05:09:04.808Z,99070.21
2019-03-06T05:11:34.427Z,99070.47
2019-03-06T05:14:04.027Z,99073.67
2019-03-06T05:16:57.380Z,99077.96
2019-03-06T05:19:27.114Z,99081.21
2019-03-06T05:21:56.755Z,99087.41
2019-03-06T05:24:26.333Z,99077.55
2019-03-06T05:26:56.033Z,99083.10
2019-03-06T05:29:25.866Z,99092.59
2019-03-06T05:32:29.122Z,99017.88
2019-03-06T05:35:00.344Z,99101.25
2019-03-06T05:38:12.868Z,99108.06
2019-03-06T05:40:42.697Z,99112.48
2019-03-06T05:43:12.496Z,99115.50
2019-03-06T05:45:43.342Z,99129.00
2019-03-06T05:48:13.075Z,99128.47
2019-03-06T05:50:42.761Z,99131.41
2019-03-06T05:53:12.449Z,99125.50
2019-03-06T05:55:42.059Z,99130.37
2019-03-06T05:58:11.851Z,99137.33
2019-03-06T06:00:47.461Z,99141.59
2019-03-06T06:03:18.453Z,99145.08
2019-03-06T06:05:48.390Z,99149.65
2019-03-06T06:08:19.847Z,99154.28
2019-03-06T06:10:52.341Z,99147.02
2019-03-06T06:13:24.265Z,99141.45
2019-03-06T06:15:54.649Z,99135.59
2019-03-06T06:19:11.286Z,99131.96
2019-03-06T06:21:59.406Z,99121.82
2019-03-06T06:24:31.546Z,99125.70
2019-03-06T06:27:02.720Z,99123.33
2019-03-06T06:29:34.928Z,99123.66
2019-03-06T06:32:05.359Z,99127.48
2019-03-06T06:34:37.262Z,99123.28
2019-03-06T06:37:09.662Z,99141.05
2019-03-06T06:39:39.890Z,99143.27
2019-03-06T06:42:09.650Z,99144.04
2019-03-06T06:44:39.316Z,99153.69
2019-03-06T06:47:08.930Z,99154.09
2019-03-06T06:49:38.765Z,99160.91
2019-03-06T06:52:42.069Z,99171.20
2019-03-06T06:55:32.214Z,99177.67
2019-03-06T06:58:37.556Z,99189.08
2019-03-06T07:01:59.150Z,99194.24
2019-03-06T07:05:11.196Z,99193.33
2019-03-06T07:08:05.772Z,99191.07
2019-03-06T07:11:09.443Z,99203.50
2019-03-06T07:14:16.361Z,99206.02
2019-03-06T07:16:59.082Z,99207.95
2019-03-06T07:19:47.694Z,99192.31
2019-03-06T07:22:54.618Z,99203.00
2019-03-06T07:25:38.837Z,99209.51
2019-03-06T07:28:19.187Z,99208.81
2019-03-06T07:31:06.475Z,99177.49
2019-03-06T07:33:53.477Z,99198.91
2019-03-06T07:36:41.948Z,99187.47
2019-03-06T07:39:29.247Z,99194.30
2019-03-06T07:42:35.986Z,99188.48
2019-03-06T07:46:05.739Z,99190.20
2019-03-06T07:48:48.165Z,99193.09
2019-03-06T07:51:35.455Z,99188.00
2019-03-06T07:54:30.810Z,99188.28
2019-03-06T07:57:14.240Z,99187.15
2019-03-06T07:59:44.193Z,99172.69
2019-03-06T08:02:19.384Z,99170.78
2019-03-06T08:04:53.610Z,99165.30
2019-03-06T08:07:23.413Z,99174.58
2019-03-06T08:09:53.284Z,99179.90
2019-03-06T08:12:31.613Z,99178.84
2019-03-06T08:15:32.264Z,99188.62
2019-03-06T08:18:19.540Z,99181.32
2019-03-06T08:21:06.651Z,99185.67
2019-03-06T08:24:00.980Z,99188.50
2019-03-06T08:26:30.763Z,99194.95
2019-03-06T08:29:00.538Z,99198.91
2019-03-06T08:31:49.010Z,99204.19
2019-03-06T08:34:18.671Z,99207.68
2019-03-06T08:36:48.469Z,99201.53
2019-03-06T08:39:23.011Z,99204.44
2019-03-06T08:41:52.860Z,99210.39
2019-03-06T08:44:22.455Z,99211.47
2019-03-06T08:47:23.168Z,99215.48
2019-03-06T08:50:01.716Z,99221.63
2019-03-06T08:52:53.060Z,99228.37
2019-03-06T08:55:44.402Z,99233.19
2019-03-06T08:58:42.409Z,99242.88
2019-03-06T09:01:43.477Z,99236.91
2019-03-06T09:04:32.091Z,99237.48
2019-03-06T09:07:19.889Z,99236.13
2019-03-06T09:10:14.278Z,99234.83
2019-03-06T09:13:05.444Z,99237.97
2019-03-06T09:16:00.294Z,99235.41
2019-03-06T09:18:48.997Z,99232.13
2019-03-06T09:21:40.293Z,99236.95
2019-03-06T09:24:35.096Z,99240.50
2019-03-06T09:27:12.070Z,99231.75
2019-03-06T09:29:57.375Z,99237.69
2019-03-06T09:32:41.330Z,99241.63
2019-03-06T09:35:29.383Z,99239.56
2019-03-06T09:38:19.514Z,99248.61
2019-03-06T09:41:26.160Z,99243.09
2019-03-06T09:44:23.800Z,99242.27
2019-03-06T09:47:15.358Z,99235.47
2019-03-06T09:50:06.924Z,99235.48
2019-03-06T09:52:57.148Z,99241.64
2019-03-06T09:55:40.588Z,99244.05
2019-03-06T09:58:31.902Z,99245.60
2019-03-06T10:01:19.122Z,99244.57
2019-03-06T10:04:07.702Z,99249.76
2019-03-06T10:06:59.021Z,99240.61
2019-03-06T10:09:37.137Z,99239.23
2019-03-06T10:12:15.239Z,99243.83
2019-03-06T10:15:01.835Z,99243.83
2019-03-06T10:17:36.229Z,99243.50
2019-03-06T10:20:09.452Z,99240.52
2019-03-06T10:22:39.317Z,99240.38
2019-03-06T10:25:09.077Z,99235.57
2019-03-06T10:27:38.778Z,99241.78
2019-03-06T10:30:12.131Z,99225.81
2019-03-06T10:32:41.995Z,99231.59
2019-03-06T10:35:12.927Z,99228.43
2019-03-06T10:37:42.490Z,99223.73
2019-03-06T10:40:15.197Z,99221.60
2019-03-06T10:42:44.900Z,99217.81
2019-03-06T10:45:15.692Z,99217.67
2019-03-06T10:47:45.844Z,99213.03
2019-03-06T10:50:26.022Z,99219.91
2019-03-06T10:52:49.052Z,99217.78
2019-03-06T10:55:19.254Z,99216.96
2019-03-06T10:57:49.164Z,99211.50
2019-03-06T11:00:26.963Z,99202.77
2019-03-06T11:02:57.103Z,99207.06
2019-03-06T11:05:31.631Z,99200.73
2019-03-06T11:08:02.090Z,99192.48
2019-03-06T11:10:39.538Z,99195.22
2019-03-06T11:13:11.764Z,99192.80
2019-03-06T11:15:42.006Z,99195.11
2019-03-06T11:18:11.943Z,99188.53
2019-03-06T11:20:42.005Z,99191.34
2019-03-06T11:23:12.085Z,99180.69
2019-03-06T11:25:42.077Z,99183.98
2019-03-06T11:28:12.658Z,99183.52
2019-03-06T11:30:46.507Z,99175.14
2019-03-06T11:33:17.474Z,99176.36
2019-03-06T11:35:47.505Z,99182.77
2019-03-06T11:38:17.771Z,99189.33
2019-03-06T11:40:47.484Z,99177.84
2019-03-06T11:43:17.222Z,99174.05
2019-03-06T11:45:47.343Z,99166.62
2019-03-06T11:48:17.189Z,99183.98
2019-03-06T11:50:47.386Z,99173.94
2019-03-06T11:53:16.964Z,99174.55
2019-03-06T11:55:46.822Z,99173.64
2019-03-06T11:58:18.831Z,99166.36
2019-03-06T12:00:48.843Z,99175.22
2019-03-06T12:03:20.876Z,99174.39
2019-03-06T12:05:51.031Z,99168.13
2019-03-06T12:08:21.375Z,99167.61
2019-03-06T12:10:52.353Z,99170.39
2019-03-06T12:13:22.197Z,99161.19
2019-03-06T12:15:52.452Z,99165.02
2019-03-06T12:18:24.599Z,99157.25
2019-03-06T12:20:55.445Z,99156.58
2019-03-06T12:23:25.275Z,99161.48
2019-03-06T12:25:54.985Z,99152.64
2019-03-06T12:28:24.632Z,99154.53
2019-03-06T12:30:54.347Z,99142.78
2019-03-06T12:33:26.217Z,99144.69
2019-03-06T12:35:55.810Z,99151.87
2019-03-06T12:38:25.517Z,99161.39
2019-03-06T12:40:55.304Z,99153.57
2019-03-06T12:43:25.168Z,99151.28
2019-03-06T12:46:23.835Z,99155.06
2019-03-06T12:49:14.509Z,99149.81
2019-03-06T12:51:44.203Z,99157.33
2019-03-06T12:54:13.941Z,99137.27
2019-03-06T12:56:43.548Z,99150.62
2019-03-06T12:59:13.149Z,99149.33
2019-03-06T13:01:42.833Z,99153.89
2019-03-06T13:04:12.424Z,99154.03
2019-03-06T13:06:42.076Z,99160.51
2019-03-06T13:09:18.283Z,99151.34
2019-03-06T13:11:48.375Z,99149.89
2019-03-06T13:14:18.193Z,99147.31
2019-03-06T13:16:47.843Z,99155.09
2019-03-06T13:19:17.558Z,99139.16
2019-03-06T13:21:47.176Z,99147.34
2019-03-06T13:24:17.232Z,99143.19
2019-03-06T13:26:47.188Z,99138.06
2019-03-06T13:29:17.052Z,99133.31
2019-03-06T13:31:46.729Z,99136.08
2019-03-06T13:34:23.055Z,99139.48
2019-03-06T13:36:52.702Z,99126.27
2019-03-06T13:39:22.317Z,99128.19
2019-03-06T13:41:52.110Z,99131.09
2019-03-06T13:44:21.874Z,99122.19
2019-03-06T13:46:51.477Z,99131.66
2019-03-06T13:49:21.149Z,99127.38
2019-03-06T13:51:50.933Z,99126.06
2019-03-06T13:54:20.721Z,99133.04
2019-03-06T13:56:51.844Z,99132.09
2019-03-06T13:59:21.624Z,99132.93
2019-03-06T14:01:51.276Z,99133.88
2019-03-06T14:04:20.913Z,99137.73
2019-03-06T14:06:50.611Z,99137.13
2019-03-06T14:09:20.337Z,99130.80
2019-03-06T14:11:50.319Z,99130.80
2019-03-06T14:14:20.063Z,99143.22
2019-03-06T14:16:49.667Z,99136.86
2019-03-06T14:19:19.281Z,99133.53
2019-03-06T14:21:49.081Z,99132.73
2019-03-06T14:26:47.450Z,99145.75
2019-03-06T14:29:18.511Z,99136.31
2019-03-06T14:31:48.271Z,99143.66
2019-03-06T14:34:18.019Z,99134.31
2019-03-06T14:36:47.604Z,99137.95
2019-03-06T14:39:29.200Z,99153.61
2019-03-06T14:41:59.664Z,99147.84
2019-03-06T14:44:29.432Z,99142.45
2019-03-06T14:46:59.130Z,99138.90
2019-03-06T14:49:30.402Z,99143.75
2019-03-06T14:52:07.312Z,99148.52
2019-03-06T14:54:31.993Z,99148.75
2019-03-06T14:57:01.711Z,99148.78
2019-03-06T14:59:31.378Z,99159.34
2019-03-06T15:02:01.124Z,99159.24
2019-03-06T15:04:31.042Z,99162.64
2019-03-06T15:07:00.811Z,99163.36
2019-03-06T15:09:30.885Z,99171.75
2019-03-06T15:12:00.472Z,99181.70
2019-03-06T15:14:36.175Z,99178.31
2019-03-06T15:17:01.569Z,99186.05
2019-03-06T15:19:31.289Z,99191.29
2019-03-06T15:22:02.305Z,99189.22
2019-03-06T15:24:40.719Z,99190.84
2019-03-06T15:27:03.449Z,99193.64
2019-03-06T15:29:33.356Z,99190.73
2019-03-06T15:32:02.993Z,99196.41
2019-03-06T15:34:32.676Z,99196.50
2019-03-06T15:37:02.286Z,99196.33
2019-03-06T15:39:46.714Z,99201.72
2019-03-06T15:42:09.924Z,99201.52
2019-03-06T15:44:39.784Z,99206.36
2019-03-06T15:47:09.689Z,99208.26
2019-03-06T15:49:39.343Z,99209.91
2019-03-06T15:52:11.052Z,99216.09
2019-03-06T15:54:40.848Z,99221.19
2019-03-06T15:57:10.730Z,99226.20
2019-03-06T15:59:40.685Z,99225.13
2019-03-06T16:02:10.564Z,99229.06
2019-03-06T16:04:40.302Z,99231.99
2019-03-06T16:07:10.067Z,99242.67
2019-03-06T16:09:39.995Z,99248.22
2019-03-06T16:12:12.116Z,99244.22
2019-03-06T16:14:41.483Z,99247.34
2019-03-06T16:17:11.248Z,99251.02
2019-03-06T16:19:40.943Z,99258.31
2019-03-06T16:22:10.968Z,99256.51
2019-03-06T16:24:40.720Z,99269.48
2019-03-06T16:27:10.380Z,99266.16
2019-03-06T16:29:39.962Z,99273.52
2019-03-06T16:32:09.676Z,99281.17
2019-03-06T16:34:39.465Z,99275.56
2019-03-06T16:37:09.219Z,99287.52
2019-03-06T16:39:38.847Z,99295.03
2019-03-06T16:42:08.537Z,99303.22
2019-03-06T16:44:38.336Z,99307.03
2019-03-06T16:47:08.119Z,99311.36
2019-03-06T16:49:38.171Z,99314.00
2019-03-06T16:52:08.047Z,99299.03
2019-03-06T16:54:37.840Z,99323.85
2019-03-06T16:57:07.652Z,99330.30
2019-03-06T16:59:37.608Z,99333.53
2019-03-06T17:02:07.741Z,99332.19
2019-03-06T17:04:37.520Z,99335.92
2019-03-06T17:07:07.437Z,99343.39
2019-03-06T17:09:37.162Z,99352.97
2019-03-06T17:12:07.102Z,99352.44
2019-03-06T17:14:36.836Z,99362.65
2019-03-06T17:17:06.683Z,99362.95
2019-03-06T17:19:36.363Z,99379.42
2019-03-06T17:22:06.037Z,99381.63
2019-03-06T17:24:35.698Z,99382.22
2019-03-06T17:27:05.549Z,99384.09
2019-03-06T17:29:35.206Z,99395.65
2019-03-06T17:32:05.175Z,99396.12
2019-03-06T17:34:34.980Z,99397.47
2019-03-06T17:37:05.067Z,99398.85
2019-03-06T17:39:34.711Z,99399.91
2019-03-06T17:42:04.499Z,99401.71
2019-03-06T17:44:34.319Z,99408.69
2019-03-06T17:47:04.241Z,99411.89
2019-03-06T17:49:35.003Z,99415.14
2019-03-06T17:52:04.917Z,99412.95
2019-03-06T17:54:34.690Z,99421.23
2019-03-06T17:57:04.375Z,99422.66
2019-03-06T17:59:34.146Z,99426.12
2019-03-06T18:02:04.116Z,99427.66
2019-03-06T18:04:34.398Z,99435.27
2019-03-06T18:07:06.070Z,99431.67
2019-03-06T18:09:35.941Z,99435.74
2019-03-06T18:12:05.971Z,99437.06
2019-03-06T18:14:35.653Z,99441.85
2019-03-06T18:17:05.355Z,99438.98
2019-03-06T18:19:35.090Z,99450.06
2019-03-06T18:22:04.947Z,99442.94
2019-03-06T18:24:34.654Z,99451.14
2019-03-06T18:27:04.733Z,99447.94
2019-03-06T18:29:34.652Z,99458.64
2019-03-06T18:32:04.324Z,99458.90
2019-03-06T18:34:33.965Z,99458.53
2019-03-06T18:37:03.549Z,99454.77
2019-03-06T18:39:33.362Z,99456.91
2019-03-06T18:42:03.817Z,99461.33
2019-03-06T18:44:33.413Z,99470.28
2019-03-06T18:47:03.144Z,99465.92
2019-03-06T18:49:32.793Z,99467.53
2019-03-06T18:52:02.534Z,99474.32
2019-03-06T18:54:32.559Z,99477.39
2019-03-06T18:57:02.258Z,99479.61
2019-03-06T18:59:31.871Z,99475.37
2019-03-06T19:02:01.546Z,99475.90
2019-03-06T19:04:31.265Z,99473.53
2019-03-06T19:07:00.908Z,99471.65
2019-03-06T19:09:30.654Z,99480.83
2019-03-06T19:12:00.263Z,99479.28
2019-03-06T19:14:29.982Z,99479.40
2019-03-06T19:16:59.662Z,99473.53
2019-03-06T19:19:29.536Z,99488.92
2019-03-06T19:21:59.217Z,99483.02
2019-03-06T19:24:28.941Z,99487.71
2019-03-06T19:26:58.558Z,99483.98
2019-03-06T19:29:28.266Z,99492.11
2019-03-06T19:31:57.964Z,99499.90
2019-03-06T19:34:27.731Z,99504.64
2019-03-06T19:36:57.453Z,99507.95
2019-03-06T19:39:27.038Z,99513.44
2019-03-06T19:41:56.745Z,99516.70
2019-03-06T19:44:26.402Z,99514.99
2019-03-06T19:46:56.050Z,99515.99
2019-03-06T19:49:25.628Z,99522.77
2019-03-06T19:51:55.680Z,99517.39
2019-03-06T19:54:25.346Z,99522.64
2019-03-06T19:56:55.123Z,99525.42
2019-03-06T19:59:24.780Z,99518.53
2019-03-06T20:01:54.506Z,99523.59
2019-03-06T20:04:25.684Z,99525.52
2019-03-06T20:06:55.841Z,99519.65
2019-03-06T20:09:28.354Z,99521.05
2019-03-06T20:11:58.352Z,99521.07
2019-03-06T20:14:28.307Z,99521.86
2019-03-06T20:16:58.110Z,99527.45
2019-03-06T20:19:28.253Z,99525.09
2019-03-06T20:21:58.113Z,99517.68
2019-03-06T20:24:28.520Z,99515.45
2019-03-06T20:26:58.315Z,99518.58
2019-03-06T20:29:28.090Z,99525.80
2019-03-06T20:31:57.902Z,99529.98
2019-03-06T20:34:27.524Z,99533.84
2019-03-06T20:36:57.197Z,99532.76
2019-03-06T20:39:26.799Z,99528.87
2019-03-06T20:41:56.509Z,99536.77
2019-03-06T20:44:26.274Z,99540.73
2019-03-06T20:46:55.948Z,99540.18
2019-03-06T20:49:25.555Z,99542.06
2019-03-06T20:51:55.205Z,99544.53
2019-03-06T20:54:24.883Z,99547.14
2019-03-06T20:56:54.616Z,99541.80
2019-03-06T20:59:24.340Z,99545.91
2019-03-06T21:01:54.037Z,99541.86
2019-03-06T21:04:23.675Z,99540.31
2019-03-06T21:06:53.275Z,99547.66
2019-03-06T21:09:23.088Z,99549.97
2019-03-06T21:11:52.865Z,99543.02
2019-03-06T21:14:22.527Z,99548.30
2019-03-06T21:16:52.462Z,99544.13
2019-03-06T21:19:22.237Z,99548.31
2019-03-06T21:21:51.987Z,99540.39
2019-03-06T21:24:21.815Z,99536.21
2019-03-06T21:26:51.597Z,99539.55
2019-03-06T21:29:21.329Z,99540.12
2019-03-06T21:31:51.145Z,99538.45
2019-03-06T21:34:20.941Z,99534.73
2019-03-06T21:36:50.571Z,99538.72
2019-03-06T21:39:29.820Z,99541.82
2019-03-06T21:41:59.569Z,99550.55
2019-03-06T21:44:29.662Z,99545.20
2019-03-06T21:46:59.324Z,99544.13
2019-03-06T21:49:29.114Z,99543.76
2019-03-06T21:51:58.889Z,99534.41
2019-03-06T21:54:28.622Z,99538.66
2019-03-06T21:56:58.225Z,99533.44
2019-03-06T21:59:27.861Z,99532.59
2019-03-06T22:01:57.544Z,99529.12
2019-03-06T22:04:27.219Z,99532.64
2019-03-06T22:06:57.155Z,99528.08
2019-03-06T22:09:26.837Z,99532.28
2019-03-06T22:11:56.466Z,99529.90
2019-03-06T22:14:26.334Z,99461.20
2019-03-06T22:16:56.105Z,99533.56
2019-03-06T22:19:26.650Z,99531.09
2019-03-06T22:21:56.476Z,99537.80
2019-03-06T22:24:26.168Z,99545.09
2019-03-06T22:26:55.971Z,99551.05
2019-03-06T22:29:25.612Z,99552.33
2019-03-06T22:31:55.273Z,99556.06
2019-03-06T22:34:25.238Z,99547.00
2019-03-06T22:36:54.869Z,99560.58
2019-03-06T22:39:24.604Z,99559.92
2019-03-06T22:41:54.245Z,99569.49
2019-03-06T22:44:23.977Z,99564.13
2019-03-06T22:46:53.636Z,99558.11
2019-03-06T22:49:23.512Z,99565.08
2019-03-06T22:51:53.283Z,99560.57
2019-03-06T22:54:23.142Z,99561.72
2019-03-06T22:56:52.881Z,99561.58
2019-03-06T22:59:22.559Z,99560.85
2019-03-06T23:01:53.327Z,99556.44
2019-03-06T23:04:23.141Z,99555.56
2019-03-06T23:06:52.841Z,99569.13
2019-03-06T23:09:22.588Z,99576.05
2019-03-06T23:11:52.393Z,99587.42
2019-03-06T23:14:22.033Z,99596.89
2019-03-06T23:16:52.114Z,99600.70
2019-03-06T23:19:21.814Z,99615.77
2019-03-06T23:21:51.477Z,99610.99
2019-03-06T23:24:21.087Z,99628.67
2019-03-06T23:26:50.851Z,99628.41
2019-03-06T23:29:20.798Z,99632.45
2019-03-06T23:31:50.658Z,99645.27
2019-03-06T23:34:20.387Z,99642.59
2019-03-06T23:36:50.068Z,99645.30
2019-03-06T23:39:19.713Z,99640.23
2019-03-06T23:41:49.524Z,99644.94
2019-03-06T23:44:19.388Z,99643.75
2019-03-06T23:46:49.181Z,99642.56
2019-03-06T23:49:18.937Z,99644.78
2019-03-06T23:51:57.687Z,99641.92
2019-03-06T23:54:27.291Z,99639.22
2019-03-06T23:56:57.187Z,99630.33
2019-03-06T23:59:26.928Z,99629.80
